Florania, Brazil
Current Conditions -  °F | °C
As of 9:00 AM on Saturday 20 Dec 2014 (Local Time) from SBKG Reporting Station
Broken Clouds Broken Clouds  
Wind Chill: 77°   Ceiling: 2000
Heat Index: 79°   Visibility: 6mi
Dew Point: 68°   Wind: 17mph
Humidity: 74%   Direction: 70°ENE
Pressure: 30.03"   Gusts: NA
Location:  6.13°S, 36.82°W
Report Text: SBKG 201200Z 07015KT 9999 BKN020 25/20 Q1017
Loading
Personal Weather Stations






























Interactive Weather Map New forecast layout! Learn more

10-Day Weather Forecast

Advertisements
Track Severe Weather on mobile